• Join FlightAware (Why Join?)
  • Login
  • US Flag 
11:34PM EST


 

Airport Tracker/Info


-or-


 

Live Flight TrackerFlight Track Log ✈ EJA822 ✈ 13-Apr-2014 ✈ KLGA - KINT

Flight Track Log - Related Links

Times and Time Zones

All times are in EDT time to prevent confusion due to time zone crossing. See the EJA822 flight status page for this flight to view local times or setup timezone preferences in your user account.

Time Position Orientation Groundspeed Altitude Reporting Facility
EDT Latitude Longitude Course Direction KTS MPH feet Rate Location/Type
04:30PM 40.7333 -73.8500 270° West 204 235 3,600  Level New York TRACON
04:31PM 40.7500 -73.7833 72° East 265 305 6,400 1,740 Climbing New York TRACON
04:32PM 40.8000 -73.8500 315° West 255 293 7,100 1,620 Climbing New York TRACON
04:33PM 40.8333 -73.9167 303° West 249 287 9,700 3,180 Climbing New York TRACON
04:34PM 40.8500 -74.0167 282° West 249 287 13,800 2,640 Climbing New York TRACON
04:35PM 40.8167 -74.1000 242° Southwest 289 333 15,000 600 Climbing New York TRACON
04:36PM 40.7667 -74.2167 241° Southwest 329 379 15,100 300 Climbing New York TRACON
04:37PM 40.7333 -74.3167 246° West 326 375 15,700 840 Climbing New York TRACON
04:38PM 40.4833 -74.7619 270° West  Level FlightAware Approximate
04:38PM 40.6833 -74.4000 232° Southwest 293 337 16,800  Level New York TRACON
04:39PM 40.6581 -74.4614 242° Southwest 303 349 17,000 360 Climbing New York Center
04:40PM 40.6111 -74.5600 238° Southwest 321 369 17,400 1,200 Climbing New York Center
04:41PM 40.5539 -74.6578 232° Southwest 333 383 19,400 2,460 Climbing New York Center
04:42PM 40.4986 -74.7558 233° Southwest 338 389 22,400 2,400 Climbing New York Center
04:43PM 40.4408 -74.8561 233° Southwest 344 396 24,200 1,920 Climbing New York Center
04:44PM 40.3789 -74.9586 232° Southwest 357 411 26,300 2,100 Climbing New York Center
04:45PM 40.3147 -75.0664 232° Southwest 362 417 28,400 2,040 Climbing New York Center
04:46PM 40.2567 -75.1714 234° Southwest 362 417 30,400 1,920 Climbing New York Center
04:47PM 40.1942 -75.2761 232° Southwest 367 422 32,300 1,620 Climbing New York Center
04:48PM 40.1319 -75.3808 232° Southwest 372 428 33,700 1,200 Climbing New York Center
04:49PM 40.0589 -75.4844 227° Southwest 377 434 34,700 960 Climbing New York Center
04:50PM 39.9839 -75.5878 227° Southwest 395 455 35,700 600 Climbing New York Center
04:51PM 39.9067 -75.6933 226° Southwest 407 468 36,000 120 Climbing New York Center
04:52PM 39.8372 -75.8047 231° Southwest 407 468 36,000  Level New York Center
04:53PM 39.7744 -75.9083 232° Southwest 413 475 36,000  Level New York Center
04:54PM 39.7006 -76.0189 229° Southwest 413 475 36,000  Level New York Center
04:55PM 39.6167 -76.1500 230° Southwest 395 455 36,000  Level Washington Center
04:56PM 39.5447 -76.2597 230° Southwest 396 456 36,000  Level Washington Center
04:57PM 39.4722 -76.3689 229° Southwest 398 458 36,000  Level Washington Center
04:58PM 39.3900 -76.5011 231° Southwest 395 455 36,000  Level Washington Center
04:59PM 39.3222 -76.6069 230° Southwest 390 449 36,000  Level Washington Center
05:00PM 39.2533 -76.7167 231° Southwest 390 449 36,000  Level Washington Center
05:01PM 39.1833 -76.8261 230° Southwest 392 451 36,000  Level Washington Center
05:02PM 39.1122 -76.9353 230° Southwest 393 452 36,000  Level Washington Center
05:03PM 39.0414 -77.0419 229° Southwest 393 452 36,000  Level Washington Center
05:04PM 38.9369 -77.1558 220° Southwest 408 470 36,000  Level Washington Center
05:05PM 38.8508 -77.2500 220° Southwest 408 470 36,000 -540 Level Washington Center
05:06PM 38.7644 -77.3431 220° Southwest 402 463 34,900 -1,620 Descending Washington Center
05:07PM 38.6767 -77.4394 221° Southwest 408 470 32,700 -1,440 Descending Washington Center
05:08PM 38.5814 -77.5431 220° Southwest 405 466 32,000 -360 Descending Washington Center
05:09PM 38.5075 -77.6242 221° Southwest 393 452 32,000  Level Washington Center
05:11PM 38.4219 -77.7161 220° Southwest 395 455 32,000  Level Washington Center
05:12PM 38.3206 -77.8258 220° Southwest 395 455 32,000  Level Washington Center
05:13PM 38.2350 -77.9178 220° Southwest 397 457 32,000  Level Washington Center
05:14PM 38.1497 -78.0086 220° Southwest 397 457 32,000  Level Washington Center
05:15PM 38.0636 -78.1006 220° Southwest 400 460 32,000  Level Washington Center
05:16PM 37.9783 -78.2025 223° Southwest 400 460 32,000  Level Washington Center
05:17PM 37.9092 -78.3042 229° Southwest 394 453 32,000  Level Washington Center
05:18PM 37.8389 -78.4047 229° Southwest 394 453 32,000 -540 Level Washington Center
05:19PM 37.7542 -78.5261 229° Southwest 393 452 30,900 -1,200 Descending Washington Center
05:20PM 37.6864 -78.6256 229° Southwest 387 445 29,600 -1,260 Descending Washington Center
05:21PM 37.6181 -78.7217 228° Southwest 384 442 28,300 -1,080 Descending Washington Center
05:22PM 37.5706 -78.8611 247° West 377 434 27,300 -1,380 Descending Washington Center
05:23PM 37.5194 -78.9669 239° Southwest 372 428 25,500 -1,920 Descending Washington Center
05:24PM 37.4525 -79.0581 227° Southwest 365 420 23,500 -1,680 Descending Washington Center
05:25PM 37.3733 -79.1642 227° Southwest 355 409 22,000 -780 Descending Washington Center
05:26PM 37.3022 -79.2533 225° Southwest 364 419 22,000  Level Washington Center
05:27PM 37.2164 -79.3231 213° Southwest 371 427 22,000  Level Washington Center
05:28PM 37.1303 -79.3967 214° Southwest 381 438 22,000 -720 Level Washington Center
05:29PM 37.0297 -79.4803 214° Southwest 372 428 20,600 -1,980 Descending Washington Center
05:30PM 36.9511 -79.5469 214° Southwest 350 403 17,900 -2,340 Descending Washington Center
05:31PM 36.8783 -79.6081 214° Southwest 328 377 15,800 -2,040 Descending Washington Center
05:32PM 36.7978 -79.6758 214° Southwest 299 344 13,800 -1,860 Descending Washington Center
05:33PM 36.7386 -79.7389 221° Southwest 289 333 12,000 -1,800 Descending Washington Center
05:35PM 36.6269 -79.8569 220° Southwest 271 312 8,300 -1,920 Descending Washington Center
05:37PM 36.5131 -79.9711 219° Southwest 245 282 4,200 -1,440 Descending Washington Center
05:38PM 36.4719 -80.0147 220° Southwest 220 253 3,900 -300 Descending Washington Center
05:45PM 36.1337 -80.2220 292° West  Level Estimated
05:52PM 36.1333 -80.2167 310° West  Level FlightAware Approximate
05:53PM 36.1337 -80.2220 310° West  Level Estimated
05:54PM 36.1333 -80.2167 310° West  Level FlightAware Approximate
05:55PM 36.1337 -80.2220 310° West  Level Estimated
05:56PM 36.1333 -80.2167 310° West  Level FlightAware Approximate